createdAt,value
2018-09-09T07:05:30.152Z,69.81
2018-09-09T07:07:59.927Z,69.91
2018-09-09T07:10:29.720Z,69.86
2018-09-09T07:13:01.681Z,69.47
2018-09-09T07:15:31.537Z,69.33
2018-09-09T07:18:01.453Z,70.02
2018-09-09T07:20:31.240Z,69.79
2018-09-09T07:23:00.990Z,69.96
2018-09-09T07:25:52.393Z,69.13
2018-09-09T07:28:22.465Z,69.09
2018-09-09T07:30:53.723Z,68.87
2018-09-09T07:33:24.361Z,69.38
2018-09-09T07:35:54.572Z,69.00
2018-09-09T07:38:24.450Z,69.48
2018-09-09T07:40:54.419Z,69.18
2018-09-09T07:43:24.431Z,68.92
2018-09-09T07:45:54.475Z,68.34
2018-09-09T07:48:24.367Z,68.72
2018-09-09T07:50:54.427Z,67.89
2018-09-09T07:53:24.685Z,67.05
2018-09-09T07:55:54.895Z,65.24
2018-09-09T07:58:25.402Z,66.44
2018-09-09T08:00:55.529Z,65.84
2018-09-09T08:03:29.468Z,66.22
2018-09-09T08:06:21.886Z,66.01
2018-09-09T08:08:52.521Z,65.61
2018-09-09T08:11:31.607Z,63.93
2018-09-09T08:14:01.419Z,65.56
2018-09-09T08:16:31.246Z,65.21
2018-09-09T08:19:01.779Z,64.87
2018-09-09T08:21:32.096Z,65.04
2018-09-09T08:24:02.292Z,65.18
2018-09-09T08:26:52.741Z,65.11
2018-09-09T08:29:22.691Z,64.92
2018-09-09T08:31:52.521Z,63.34
2018-09-09T08:34:23.459Z,63.67
2018-09-09T08:36:55.183Z,63.21
2018-09-09T08:39:25.164Z,62.14
2018-09-09T08:41:55.298Z,62.98
2018-09-09T08:44:25.175Z,63.42
2018-09-09T08:47:33.293Z,63.27
2018-09-09T08:52:41.968Z,63.39
2018-09-09T08:55:36.041Z,62.83
2018-09-09T08:58:10.044Z,62.21
2018-09-09T09:06:45.423Z,62.04
2018-09-09T09:12:05.269Z,63.18
2018-09-09T09:14:35.718Z,61.27
2018-09-09T09:17:08.227Z,61.34
2018-09-09T09:22:39.011Z,59.54
2018-09-09T09:25:08.906Z,60.96
2018-09-09T09:27:38.728Z,60.36
2018-09-09T09:30:59.691Z,60.85
2018-09-09T09:33:35.553Z,59.03
2018-09-09T09:36:05.369Z,58.72
2018-09-09T09:39:08.770Z,59.21
2018-09-09T09:41:39.058Z,59.68
2018-09-09T09:44:09.343Z,58.97
2018-09-09T09:49:35.149Z,57.24
2018-09-09T09:52:05.260Z,59.01
2018-09-09T09:54:38.175Z,58.03
2018-09-09T09:57:08.260Z,57.97
2018-09-09T09:59:56.538Z,57.84
2018-09-09T10:02:26.508Z,56.63
2018-09-09T10:04:56.374Z,57.13
2018-09-09T10:07:26.192Z,55.92
2018-09-09T10:09:56.333Z,56.30
2018-09-09T10:12:26.194Z,56.48
2018-09-09T10:14:56.028Z,55.81
2018-09-09T10:17:25.975Z,56.14
2018-09-09T10:22:55.597Z,54.84
2018-09-09T10:28:28.931Z,55.19
2018-09-09T10:34:02.562Z,54.80
2018-09-09T10:36:32.879Z,54.58
2018-09-09T10:39:02.660Z,53.66
2018-09-09T10:41:32.694Z,53.62
2018-09-09T10:44:02.536Z,54.46
2018-09-09T10:46:32.380Z,53.48
2018-09-09T10:49:09.810Z,53.79
2018-09-09T10:51:39.744Z,52.88
2018-09-09T10:54:09.544Z,53.09
2018-09-09T10:56:39.614Z,53.01
2018-09-09T10:59:12.368Z,53.31
2018-09-09T11:01:42.365Z,52.93
2018-09-09T11:04:12.460Z,52.66
2018-09-09T11:06:43.313Z,53.07
2018-09-09T11:09:13.409Z,53.57
2018-09-09T11:11:43.503Z,51.83
2018-09-09T11:14:13.624Z,52.82
2018-09-09T11:16:43.609Z,52.76
2018-09-09T11:19:13.598Z,52.31
2018-09-09T11:21:43.551Z,50.65
2018-09-09T11:24:13.393Z,51.06
2018-09-09T11:26:43.156Z,50.78
2018-09-09T11:29:13.299Z,50.52
2018-09-09T11:31:43.253Z,49.41
2018-09-09T11:34:13.392Z,50.80
2018-09-09T11:36:43.651Z,49.93
2018-09-09T11:39:13.563Z,49.69
2018-09-09T11:47:14.345Z,49.53
2018-09-09T11:52:21.552Z,49.74
2018-09-09T11:54:51.950Z,49.31
2018-09-09T11:57:31.952Z,48.00
2018-09-09T12:00:02.153Z,49.43
2018-09-09T12:02:32.044Z,49.83
2018-09-09T12:05:02.157Z,50.03
2018-09-09T12:07:31.994Z,49.16
2018-09-09T12:10:02.038Z,48.92
2018-09-09T12:12:32.106Z,49.31
2018-09-09T12:15:01.982Z,50.26
2018-09-09T12:17:32.700Z,49.72
2018-09-09T12:20:02.633Z,48.67
2018-09-09T12:22:32.453Z,49.17
2018-09-09T12:25:10.564Z,49.00
2018-09-09T12:27:40.488Z,48.42
2018-09-09T12:30:11.208Z,48.51
2018-09-09T12:32:41.431Z,47.10
2018-09-09T12:38:11.493Z,47.66
2018-09-09T12:40:43.743Z,47.17
2018-09-09T12:43:18.872Z,47.75
2018-09-09T12:45:54.559Z,46.81
2018-09-09T12:48:31.512Z,47.48
2018-09-09T12:51:02.551Z,46.40
2018-09-09T12:53:33.291Z,45.78
2018-09-09T12:56:03.216Z,46.90
2018-09-09T12:58:52.259Z,45.43
2018-09-09T13:01:27.760Z,45.51
2018-09-09T13:03:57.958Z,46.36
2018-09-09T13:06:27.749Z,44.31
2018-09-09T13:08:57.802Z,45.99
2018-09-09T13:11:27.689Z,46.15
2018-09-09T13:13:57.616Z,46.34
2018-09-09T13:16:29.999Z,45.31
2018-09-09T13:19:01.842Z,46.30
2018-09-09T13:24:31.707Z,43.59
2018-09-09T13:27:02.041Z,46.09
2018-09-09T13:29:31.780Z,44.09
2018-09-09T13:32:13.035Z,44.90
2018-09-09T13:34:44.068Z,43.86
2018-09-09T13:37:14.251Z,44.12
2018-09-09T13:39:59.593Z,42.34
2018-09-09T13:45:42.593Z,42.99
2018-09-09T13:48:12.983Z,43.64
2018-09-09T13:50:44.862Z,44.53
2018-09-09T13:53:16.957Z,44.47
2018-09-09T13:55:46.658Z,45.63
2018-09-09T13:58:16.820Z,44.93
2018-09-09T14:00:46.657Z,44.66
2018-09-09T14:03:17.042Z,45.36
2018-09-09T14:05:47.231Z,45.26
2018-09-09T14:08:27.050Z,45.52
2018-09-09T14:10:57.888Z,44.75
2018-09-09T14:13:28.033Z,44.77
2018-09-09T14:15:58.902Z,45.43
2018-09-09T14:18:29.234Z,44.90
2018-09-09T14:20:58.999Z,45.77
2018-09-09T14:23:28.858Z,45.66
2018-09-09T14:26:02.632Z,45.51
2018-09-09T14:28:33.540Z,45.21
2018-09-09T14:31:04.473Z,45.12
2018-09-09T14:33:34.232Z,45.15
2018-09-09T14:36:03.999Z,45.61
2018-09-09T14:38:34.678Z,46.21
2018-09-09T14:41:04.519Z,46.86
2018-09-09T14:43:54.356Z,44.65
2018-09-09T14:46:24.211Z,46.26
2018-09-09T14:49:17.364Z,47.10
2018-09-09T14:51:47.245Z,46.61
2018-09-09T14:57:41.969Z,46.18
2018-09-09T15:00:19.591Z,47.67
2018-09-09T15:02:49.801Z,47.31
2018-09-09T15:05:19.675Z,47.54
2018-09-09T15:07:50.896Z,46.27
2018-09-09T15:10:20.672Z,46.18
2018-09-09T15:12:50.912Z,47.33
2018-09-09T15:15:20.711Z,46.73
2018-09-09T15:17:50.835Z,47.42
2018-09-09T15:20:20.616Z,46.02
2018-09-09T15:22:50.755Z,45.67
2018-09-09T15:25:20.601Z,47.31
2018-09-09T15:27:51.327Z,46.21
2018-09-09T15:30:21.097Z,47.21
2018-09-09T15:32:51.048Z,47.09
2018-09-09T15:38:31.173Z,47.43
2018-09-09T15:47:20.232Z,49.25
2018-09-09T15:50:19.980Z,48.71
2018-09-09T15:56:04.992Z,48.93
2018-09-09T15:58:35.807Z,49.05
2018-09-09T16:01:05.819Z,49.60
2018-09-09T16:03:55.931Z,49.01
2018-09-09T16:06:25.905Z,49.23
2018-09-09T16:08:55.802Z,49.77
2018-09-09T16:11:31.187Z,50.06
2018-09-09T16:14:01.214Z,50.25
2018-09-09T16:16:32.254Z,50.17
2018-09-09T16:19:09.082Z,50.28
2018-09-09T16:21:39.067Z,49.62
2018-09-09T16:24:30.605Z,47.59
2018-09-09T16:27:02.350Z,48.53
2018-09-09T16:29:39.589Z,48.29
2018-09-09T16:32:11.011Z,49.33
2018-09-09T16:34:40.903Z,49.56
2018-09-09T16:37:10.821Z,48.92
2018-09-09T16:39:41.700Z,48.70
2018-09-09T16:42:12.146Z,49.13
2018-09-09T16:44:47.592Z,50.10
2018-09-09T16:47:25.452Z,49.65
2018-09-09T16:50:02.746Z,50.58
2018-09-09T16:52:36.268Z,50.35
2018-09-09T16:55:06.809Z,50.54
2018-09-09T16:57:42.761Z,49.78
2018-09-09T17:00:39.195Z,49.76
2018-09-09T17:03:38.920Z,50.44
2018-09-09T17:06:12.958Z,51.37
2018-09-09T17:08:43.141Z,50.90
2018-09-09T17:11:13.305Z,51.63
2018-09-09T17:14:09.582Z,51.85
2018-09-09T17:23:03.790Z,52.37
2018-09-09T17:28:41.691Z,53.23
2018-09-09T17:31:12.825Z,53.64
2018-09-09T17:33:42.953Z,53.84
2018-09-09T17:36:19.611Z,55.06
2018-09-09T17:41:49.206Z,55.15
2018-09-09T17:44:25.003Z,55.70
2018-09-09T17:46:55.069Z,55.32
2018-09-09T17:49:24.923Z,55.76
2018-09-09T17:51:54.756Z,56.01
2018-09-09T17:57:52.202Z,57.97
2018-09-09T18:00:23.664Z,58.45
2018-09-09T18:06:10.350Z,58.44
2018-09-09T18:09:15.851Z,59.90
2018-09-09T18:11:45.900Z,59.50
2018-09-09T18:14:20.249Z,60.31
2018-09-09T18:16:50.999Z,61.12
2018-09-09T18:19:20.965Z,60.81
2018-09-09T18:21:51.037Z,61.45
2018-09-09T18:24:20.819Z,62.64
2018-09-09T18:26:50.639Z,62.33
2018-09-09T18:29:20.522Z,62.72
2018-09-09T18:32:27.895Z,62.28
2018-09-09T18:35:15.288Z,63.11
2018-09-09T18:38:48.359Z,62.09
2018-09-09T18:41:18.243Z,64.62
2018-09-09T18:43:48.514Z,64.52
2018-09-09T18:46:18.397Z,63.82
2018-09-09T18:49:05.013Z,63.69
2018-09-09T18:51:53.051Z,62.82
2018-09-09T18:54:23.124Z,63.04
2018-09-09T18:56:53.231Z,64.07
2018-09-09T18:59:31.254Z,62.66
2018-09-09T19:02:01.130Z,62.34
2018-09-09T19:04:40.810Z,62.18
2018-09-09T19:07:14.904Z,63.01
2018-09-09T19:09:45.646Z,62.16
2018-09-09T19:12:17.594Z,62.40
2018-09-09T19:17:42.306Z,64.84
2018-09-09T19:20:12.131Z,65.92
2018-09-09T19:22:41.987Z,63.66
2018-09-09T19:25:11.779Z,63.15
2018-09-09T19:27:51.057Z,62.22
2018-09-09T19:30:21.191Z,65.69
2018-09-09T19:32:53.909Z,67.04
2018-09-09T19:35:24.875Z,68.15
2018-09-09T19:37:55.013Z,68.04
2018-09-09T19:40:24.898Z,66.90
2018-09-09T19:42:54.952Z,66.29
2018-09-09T19:45:24.939Z,65.59
2018-09-09T19:47:55.292Z,68.14
2018-09-09T19:50:26.705Z,65.64
2018-09-09T19:52:58.588Z,65.56
2018-09-09T19:55:31.172Z,64.26
2018-09-09T19:58:01.195Z,63.30
2018-09-09T20:00:32.247Z,64.92
2018-09-09T20:03:02.310Z,64.17
2018-09-09T20:05:32.254Z,64.98
2018-09-09T20:08:03.500Z,65.04
2018-09-09T20:10:33.296Z,67.97
2018-09-09T20:13:03.546Z,68.12
2018-09-09T20:15:33.307Z,68.47
2018-09-09T20:18:03.167Z,68.58
2018-09-09T20:20:33.507Z,68.76
2018-09-09T20:23:03.391Z,66.98
2018-09-09T20:25:33.277Z,65.67
2018-09-09T20:28:04.370Z,64.89
2018-09-09T20:30:34.314Z,64.54
2018-09-09T20:33:04.144Z,65.70
2018-09-09T20:35:33.938Z,66.57
2018-09-09T20:38:03.800Z,65.82
2018-09-09T20:40:33.929Z,64.87
2018-09-09T20:43:03.934Z,65.18
2018-09-09T20:45:33.801Z,65.05
2018-09-09T20:48:09.925Z,65.88
2018-09-09T20:50:44.908Z,67.43
2018-09-09T20:53:30.030Z,68.09
2018-09-09T20:56:00.859Z,69.85
2018-09-09T20:58:30.795Z,68.95
2018-09-09T21:01:00.874Z,67.57
2018-09-09T21:03:30.952Z,66.49
2018-09-09T21:06:01.665Z,67.12
2018-09-09T21:08:37.884Z,69.94
2018-09-09T21:11:10.494Z,68.13
2018-09-09T21:13:40.381Z,66.74
2018-09-09T21:19:14.076Z,68.66
2018-09-09T21:21:44.577Z,67.66
2018-09-09T21:24:36.299Z,68.48
2018-09-09T21:27:09.347Z,70.13
2018-09-09T21:29:39.249Z,71.41
2018-09-09T21:32:21.248Z,69.90
2018-09-09T21:34:52.662Z,67.50
2018-09-09T21:37:23.396Z,67.65
2018-09-09T21:40:15.473Z,69.09
2018-09-09T21:42:45.379Z,71.77
2018-09-09T21:45:17.752Z,70.26
2018-09-09T21:47:49.058Z,71.57
2018-09-09T21:50:19.003Z,72.38
2018-09-09T21:52:48.854Z,71.65
2018-09-09T21:55:18.638Z,71.03
2018-09-09T22:12:02.016Z,71.24
2018-09-09T22:17:31.440Z,70.42
2018-09-09T22:20:01.500Z,70.28
2018-09-09T22:22:54.123Z,69.00
2018-09-09T22:25:38.555Z,70.88
2018-09-09T22:28:18.913Z,73.22
2018-09-09T22:30:48.902Z,70.85
2018-09-09T22:33:44.351Z,71.24
2018-09-09T22:36:24.590Z,69.13
2018-09-09T22:38:54.575Z,70.60
2018-09-09T22:41:24.379Z,72.65
2018-09-09T22:43:54.225Z,72.92
2018-09-09T22:46:24.419Z,73.35
2018-09-09T22:49:13.976Z,70.90
2018-09-09T22:54:26.311Z,71.84
2018-09-09T22:56:59.589Z,71.72
2018-09-09T22:59:29.347Z,72.46
2018-09-09T23:01:59.159Z,73.43
2018-09-09T23:04:28.887Z,73.52
